createdAt,value
2022-12-18T00:01:20.029Z,-3.20
2022-12-18T00:03:47.152Z,-3.20
2022-12-18T00:06:14.828Z,-3.20
2022-12-18T00:08:42.628Z,-3.20
2022-12-18T00:11:12.141Z,-3.20
2022-12-18T00:13:39.352Z,-3.10
2022-12-18T00:16:08.345Z,-3.10
2022-12-18T00:18:37.617Z,-3.10
2022-12-18T00:21:06.961Z,-3.10
2022-12-18T00:23:34.869Z,-3.00
2022-12-18T00:26:05.483Z,-3.00
2022-12-18T00:28:32.199Z,-3.00
2022-12-18T00:31:03.027Z,-3.00
2022-12-18T00:33:29.824Z,-3.00
2022-12-18T00:36:01.094Z,-3.00
2022-12-18T00:38:27.953Z,-3.00
2022-12-18T00:40:56.885Z,-2.90
2022-12-18T00:43:23.649Z,-2.90
2022-12-18T00:45:50.764Z,-3.00
2022-12-18T00:48:17.569Z,-2.90
2022-12-18T00:50:44.315Z,-2.90
2022-12-18T00:53:13.237Z,-2.90
2022-12-18T00:55:43.251Z,-2.90
2022-12-18T00:58:12.707Z,-2.80
2022-12-18T01:00:39.608Z,-2.80
2022-12-18T01:03:06.751Z,-2.90
2022-12-18T01:05:33.755Z,-2.90
2022-12-18T01:08:00.580Z,-3.00
2022-12-18T01:10:27.346Z,-3.00
2022-12-18T01:12:56.550Z,-3.00
2022-12-18T01:15:25.793Z,-2.90
2022-12-18T01:17:53.941Z,-2.90
2022-12-18T01:20:20.767Z,-2.90
2022-12-18T01:22:47.561Z,-2.90
2022-12-18T01:25:14.275Z,-3.00
2022-12-18T01:27:40.995Z,-3.00
2022-12-18T01:30:08.293Z,-3.00
2022-12-18T01:32:35.033Z,-3.00
2022-12-18T01:35:02.197Z,-3.00
2022-12-18T01:37:28.919Z,-3.00
2022-12-18T01:40:00.182Z,-3.10
2022-12-18T01:42:27.002Z,-3.10
2022-12-18T01:45:02.653Z,-3.00
2022-12-18T01:47:46.216Z,-3.00
2022-12-18T01:50:16.951Z,-3.10
2022-12-18T01:52:44.893Z,-3.10
2022-12-18T01:55:12.038Z,-3.00
2022-12-18T01:57:39.095Z,-3.00
2022-12-18T02:00:09.129Z,-3.10
2022-12-18T02:02:38.097Z,-3.10
2022-12-18T02:05:05.368Z,-3.10
2022-12-18T02:07:32.093Z,-3.10
2022-12-18T02:10:06.249Z,-3.10
2022-12-18T02:13:06.334Z,-3.00
2022-12-18T02:15:46.985Z,-3.10
2022-12-18T02:18:23.358Z,-3.10
2022-12-18T02:21:22.769Z,-3.10
2022-12-18T02:24:14.906Z,-3.00
2022-12-18T02:26:59.218Z,-2.90
2022-12-18T02:29:29.009Z,-2.90
2022-12-18T02:31:59.647Z,-2.90
2022-12-18T02:34:29.341Z,-2.90
2022-12-18T02:36:56.076Z,-2.90
2022-12-18T02:39:22.978Z,-3.00
2022-12-18T02:41:49.698Z,-3.00
2022-12-18T02:44:16.563Z,-3.00
2022-12-18T02:46:47.690Z,-2.90
2022-12-18T02:49:14.389Z,-2.90
2022-12-18T02:51:57.097Z,-2.80
2022-12-18T02:54:35.821Z,-2.80
2022-12-18T02:57:14.456Z,-2.70
2022-12-18T02:59:56.116Z,-2.70
2022-12-18T03:02:26.219Z,-2.80
2022-12-18T03:05:04.626Z,-2.80
2022-12-18T03:08:00.790Z,-2.90
2022-12-18T03:10:32.023Z,-2.80
2022-12-18T03:13:13.142Z,-2.80
2022-12-18T03:15:45.132Z,-2.90
2022-12-18T03:18:36.832Z,-2.90
2022-12-18T03:21:05.843Z,-2.90
2022-12-18T03:23:41.284Z,-2.90
2022-12-18T03:26:11.351Z,-3.00
2022-12-18T03:28:44.624Z,-2.90
2022-12-18T03:31:14.005Z,-2.90
2022-12-18T03:34:04.072Z,-2.90
2022-12-18T03:36:32.983Z,-2.90
2022-12-18T03:38:59.726Z,-3.00
2022-12-18T03:41:34.832Z,-3.00
2022-12-18T03:44:13.953Z,-3.00
2022-12-18T03:46:49.531Z,-3.00
2022-12-18T03:49:26.764Z,-3.00
2022-12-18T03:52:02.689Z,-3.10
2022-12-18T03:54:29.542Z,-3.00
2022-12-18T03:57:00.937Z,-2.90
2022-12-18T03:59:27.718Z,-2.90
2022-12-18T04:01:59.168Z,-2.90
2022-12-18T04:04:26.020Z,-3.00
2022-12-18T04:06:52.872Z,-3.00
2022-12-18T04:09:20.427Z,-3.00
2022-12-18T04:11:49.800Z,-3.00
2022-12-18T04:14:18.176Z,-2.90
2022-12-18T04:16:45.361Z,-2.90
2022-12-18T04:19:12.097Z,-3.00
2022-12-18T04:21:38.836Z,-3.00
2022-12-18T04:24:05.986Z,-3.00
2022-12-18T04:26:32.735Z,-3.00
2022-12-18T04:28:59.468Z,-3.00
2022-12-18T04:31:26.250Z,-3.00
2022-12-18T04:33:53.243Z,-3.00
2022-12-18T04:36:20.053Z,-2.90
2022-12-18T04:38:46.830Z,-3.00
2022-12-18T04:41:13.547Z,-3.00
2022-12-18T04:43:47.529Z,-3.00
2022-12-18T04:46:14.306Z,-3.10
2022-12-18T04:48:45.864Z,-3.10
2022-12-18T04:51:12.925Z,-3.10
2022-12-18T04:53:42.252Z,-3.20
2022-12-18T04:56:12.917Z,-3.20
2022-12-18T04:58:40.217Z,-3.20
2022-12-18T05:01:09.681Z,-3.20
2022-12-18T05:03:36.923Z,-3.20
2022-12-18T05:06:04.734Z,-3.20
2022-12-18T05:08:31.577Z,-3.20
2022-12-18T05:11:07.967Z,-3.20
2022-12-18T05:13:34.909Z,-3.30
2022-12-18T05:16:01.756Z,-3.20
2022-12-18T05:18:29.542Z,-3.20
2022-12-18T05:20:56.309Z,-3.30
2022-12-18T05:23:23.645Z,-3.30
2022-12-18T05:25:57.363Z,-3.30
2022-12-18T05:28:28.209Z,-3.30
2022-12-18T05:30:56.846Z,-3.30
2022-12-18T05:33:27.128Z,-3.40
2022-12-18T05:35:57.511Z,-3.40
2022-12-18T05:38:25.222Z,-3.40
2022-12-18T05:40:52.325Z,-3.40
2022-12-18T05:43:21.524Z,-3.40
2022-12-18T05:45:48.862Z,-3.40
2022-12-18T05:48:17.867Z,-3.40
2022-12-18T05:50:46.536Z,-3.40
2022-12-18T05:53:16.593Z,-3.40
2022-12-18T05:55:43.621Z,-3.40
2022-12-18T05:58:11.151Z,-3.50
2022-12-18T06:00:40.896Z,-3.50
2022-12-18T06:03:08.745Z,-3.50
2022-12-18T06:05:38.855Z,-3.50
2022-12-18T06:08:08.159Z,-3.40
2022-12-18T06:10:34.898Z,-3.40
2022-12-18T06:13:06.724Z,-3.30
2022-12-18T06:15:33.522Z,-3.40
2022-12-18T06:18:01.730Z,-3.30
2022-12-18T06:20:33.452Z,-3.20
2022-12-18T06:23:00.870Z,-3.20
2022-12-18T06:25:27.564Z,-3.30
2022-12-18T06:27:54.287Z,-3.30
2022-12-18T06:30:21.092Z,-3.40
2022-12-18T06:32:54.726Z,-3.40
2022-12-18T06:35:23.381Z,-3.30
2022-12-18T06:37:50.135Z,-3.30
2022-12-18T06:40:17.534Z,-3.40
2022-12-18T06:42:44.267Z,-3.40
2022-12-18T06:45:11.113Z,-3.50
2022-12-18T06:47:37.849Z,-3.40
2022-12-18T06:50:04.806Z,-3.50
2022-12-18T06:52:33.312Z,-3.40
2022-12-18T06:55:00.213Z,-3.30
2022-12-18T06:57:26.958Z,-3.30
2022-12-18T06:59:53.681Z,-3.40
2022-12-18T07:02:22.729Z,-3.30
2022-12-18T07:04:54.857Z,-3.30
2022-12-18T07:07:21.593Z,-3.30
2022-12-18T07:09:50.713Z,-3.20
2022-12-18T07:12:17.583Z,-3.20
2022-12-18T07:14:44.351Z,-3.20
2022-12-18T07:17:11.130Z,-3.30
2022-12-18T07:19:37.870Z,-3.20
2022-12-18T07:22:04.636Z,-3.30
2022-12-18T07:24:31.457Z,-3.30
2022-12-18T07:26:58.171Z,-3.40
2022-12-18T07:29:24.975Z,-3.30
2022-12-18T07:31:51.725Z,-3.30
2022-12-18T07:34:20.641Z,-3.20
2022-12-18T07:36:47.377Z,-3.10
2022-12-18T07:39:14.189Z,-3.00
2022-12-18T07:41:47.365Z,-3.00
2022-12-18T07:44:14.447Z,-3.00
2022-12-18T07:46:43.524Z,-3.00
2022-12-18T07:49:10.337Z,-3.00
2022-12-18T07:51:39.518Z,-2.90
2022-12-18T07:54:06.317Z,-2.90
2022-12-18T07:56:35.257Z,-2.90
2022-12-18T07:59:02.124Z,-2.90
2022-12-18T08:01:29.214Z,-2.90
2022-12-18T08:03:56.120Z,-3.00
2022-12-18T08:06:24.372Z,-3.00
2022-12-18T08:08:55.041Z,-3.00
2022-12-18T08:11:22.057Z,-3.00
2022-12-18T08:13:48.804Z,-2.90
2022-12-18T08:16:18.511Z,-2.90
2022-12-18T08:18:45.994Z,-3.00
2022-12-18T08:21:22.207Z,-2.90
2022-12-18T08:23:52.090Z,-3.00
2022-12-18T08:26:19.289Z,-2.90
2022-12-18T08:28:46.137Z,-2.90
2022-12-18T08:31:12.926Z,-2.90
2022-12-18T08:33:40.420Z,-2.90
2022-12-18T08:36:09.205Z,-2.70
2022-12-18T08:38:38.511Z,-2.70
2022-12-18T08:41:10.167Z,-2.70
2022-12-18T08:43:55.491Z,-2.70
2022-12-18T08:46:28.682Z,-2.60
2022-12-18T08:48:56.942Z,-2.60
2022-12-18T08:51:25.872Z,-2.70
2022-12-18T08:53:52.584Z,-2.70
2022-12-18T08:56:21.785Z,-2.70
2022-12-18T08:58:48.574Z,-2.60
2022-12-18T09:01:17.884Z,-2.60
2022-12-18T09:03:46.771Z,-2.60
2022-12-18T09:06:20.617Z,-2.60
2022-12-18T09:08:47.683Z,-2.60
2022-12-18T09:11:21.433Z,-2.60
2022-12-18T09:13:48.276Z,-2.60
2022-12-18T09:16:16.335Z,-2.50
2022-12-18T09:18:45.966Z,-2.70
2022-12-18T09:21:19.894Z,-2.90
2022-12-18T09:23:52.941Z,-3.10
2022-12-18T09:26:19.871Z,-3.10
2022-12-18T09:28:46.612Z,-2.90
2022-12-18T09:31:20.144Z,-2.80
2022-12-18T09:33:46.897Z,-2.70
2022-12-18T09:36:18.611Z,-2.60
2022-12-18T09:38:45.543Z,-2.50
2022-12-18T09:41:37.242Z,-2.30
2022-12-18T09:44:16.884Z,-2.40
2022-12-18T09:46:50.718Z,-2.30
2022-12-18T09:49:19.933Z,-2.20
2022-12-18T09:51:58.149Z,-2.20
2022-12-18T09:54:34.008Z,-2.30
2022-12-18T09:57:00.726Z,-2.30
2022-12-18T09:59:34.577Z,-2.20
2022-12-18T10:02:03.511Z,-2.40
2022-12-18T10:04:33.441Z,-2.40
2022-12-18T10:07:10.850Z,-2.50
2022-12-18T10:09:54.767Z,-2.40
2022-12-18T10:12:25.776Z,-2.30
2022-12-18T10:15:02.658Z,-2.40
2022-12-18T10:18:04.802Z,-2.50
2022-12-18T10:20:36.851Z,-2.50
2022-12-18T10:23:19.686Z,-2.50
2022-12-18T10:26:06.736Z,-2.50
2022-12-18T10:28:40.578Z,-2.50
2022-12-18T10:31:17.913Z,-2.40
2022-12-18T10:33:44.737Z,-2.40
2022-12-18T10:36:13.756Z,-2.30
2022-12-18T10:38:40.881Z,-2.40
2022-12-18T10:41:23.097Z,-2.40
2022-12-18T10:43:51.050Z,-2.40
2022-12-18T10:46:20.998Z,-2.40
2022-12-18T10:48:47.794Z,-2.40
2022-12-18T10:51:23.474Z,-2.50
2022-12-18T10:54:06.426Z,-2.50
2022-12-18T10:56:37.575Z,-2.40
2022-12-18T10:59:06.094Z,-2.30
2022-12-18T11:01:58.531Z,-2.20
2022-12-18T11:04:31.936Z,-2.20
2022-12-18T11:06:59.938Z,-2.10
2022-12-18T11:09:32.541Z,-2.10
2022-12-18T11:12:00.842Z,-2.10
2022-12-18T11:14:35.322Z,-2.10
2022-12-18T11:17:24.906Z,-2.10
2022-12-18T11:19:58.280Z,-2.10
2022-12-18T11:22:33.182Z,-2.10
2022-12-18T11:27:54.628Z,-2.00
2022-12-18T11:30:21.374Z,-1.80
2022-12-18T11:32:50.017Z,-1.70
2022-12-18T11:35:50.688Z,-1.70
2022-12-18T11:38:25.083Z,-1.80
2022-12-18T11:41:16.877Z,-1.70
2022-12-18T11:43:56.449Z,-1.80
2022-12-18T11:46:35.693Z,-1.90
2022-12-18T11:49:04.550Z,-1.80
2022-12-18T11:51:48.882Z,-1.70
2022-12-18T11:54:18.232Z,-1.60
2022-12-18T11:56:57.243Z,-1.60
2022-12-18T12:00:06.664Z,-1.60
2022-12-18T12:03:00.339Z,-1.60
2022-12-18T12:06:07.155Z,-1.50
2022-12-18T12:08:45.913Z,-1.40
2022-12-18T12:11:42.889Z,-1.50
2022-12-18T12:14:40.364Z,-1.50
2022-12-18T12:17:42.311Z,-1.40
2022-12-18T12:20:17.801Z,-1.40
2022-12-18T12:22:53.555Z,-1.40
2022-12-18T12:25:50.266Z,-1.30
2022-12-18T12:28:44.718Z,-1.20
2022-12-18T12:31:36.550Z,-1.10
2022-12-18T12:34:15.015Z,-1.10
2022-12-18T12:36:43.927Z,-1.20
2022-12-18T12:39:13.900Z,-1.20
2022-12-18T12:42:17.500Z,-1.20
2022-12-18T12:44:51.259Z,-1.20
2022-12-18T12:47:26.475Z,-1.10
2022-12-18T12:49:55.701Z,-1.10
2022-12-18T12:52:41.068Z,-1.10
2022-12-18T12:55:14.618Z,-1.10
2022-12-18T12:57:42.902Z,-1.30
2022-12-18T13:00:20.210Z,-1.40
2022-12-18T13:02:50.584Z,-1.40
2022-12-18T13:05:31.274Z,-1.30
2022-12-18T13:08:07.275Z,-1.60
2022-12-18T13:10:36.579Z,-1.70
2022-12-18T13:13:03.922Z,-1.60
2022-12-18T13:15:40.876Z,-1.60
2022-12-18T13:18:10.633Z,-1.60
2022-12-18T13:20:55.357Z,-1.40
2022-12-18T13:23:29.295Z,-1.50
2022-12-18T13:26:09.154Z,-1.50
2022-12-18T13:28:47.990Z,-1.50
2022-12-18T13:31:33.494Z,-1.50
2022-12-18T13:34:29.168Z,-1.70
2022-12-18T13:36:58.389Z,-1.70
2022-12-18T13:39:34.791Z,-1.60
2022-12-18T13:42:08.650Z,-1.70
2022-12-18T13:44:42.174Z,-1.80
2022-12-18T13:47:33.481Z,-1.70
2022-12-18T13:50:00.824Z,-1.60
2022-12-18T13:52:34.163Z,-1.60
2022-12-18T13:55:06.759Z,-1.50
2022-12-18T13:57:39.325Z,-1.50
2022-12-18T14:00:24.695Z,-1.60
2022-12-18T14:02:54.100Z,-1.70
2022-12-18T14:05:38.754Z,-1.80
2022-12-18T14:08:16.776Z,-1.90
2022-12-18T14:10:49.468Z,-2.10
2022-12-18T14:13:22.331Z,-2.10
2022-12-18T14:15:51.546Z,-2.00
2022-12-18T14:18:25.769Z,-2.10
2022-12-18T14:21:03.848Z,-2.10
2022-12-18T14:23:39.487Z,-2.00
2022-12-18T14:26:23.375Z,-1.90
2022-12-18T14:28:50.098Z,-2.00
2022-12-18T14:31:24.567Z,-1.90
2022-12-18T14:33:51.562Z,-2.00
2022-12-18T14:36:20.349Z,-2.00
2022-12-18T14:38:51.754Z,-2.00
2022-12-18T14:41:21.829Z,-1.90
2022-12-18T14:43:49.798Z,-1.80
2022-12-18T14:46:38.492Z,-1.80
2022-12-18T14:49:26.028Z,-1.70
2022-12-18T14:51:57.177Z,-1.70
2022-12-18T14:54:25.023Z,-1.80
2022-12-18T14:57:04.357Z,-1.70
2022-12-18T14:59:31.643Z,-1.70
2022-12-18T15:02:13.959Z,-1.70
2022-12-18T15:04:45.037Z,-1.70
2022-12-18T15:07:22.583Z,-1.60
2022-12-18T15:10:06.787Z,-1.80
2022-12-18T15:12:39.446Z,-1.70
2022-12-18T15:15:06.559Z,-1.80
2022-12-18T15:17:33.350Z,-1.80
2022-12-18T15:20:02.289Z,-1.90
2022-12-18T15:22:29.845Z,-1.90
2022-12-18T15:24:57.359Z,-2.30
2022-12-18T15:27:38.685Z,-2.60
2022-12-18T15:30:08.927Z,-2.50
2022-12-18T15:32:39.247Z,-2.40
2022-12-18T15:35:09.015Z,-2.30
2022-12-18T15:37:35.817Z,-2.30
2022-12-18T15:40:03.345Z,-2.30
2022-12-18T15:42:48.947Z,-2.30
2022-12-18T15:45:18.513Z,-2.10
2022-12-18T15:47:46.324Z,-2.20
2022-12-18T15:50:13.319Z,-2.30
2022-12-18T15:52:44.315Z,-2.20
2022-12-18T15:55:40.362Z,-2.20
2022-12-18T15:58:11.479Z,-2.20
2022-12-18T16:00:40.102Z,-2.10
2022-12-18T16:03:07.587Z,-2.00
2022-12-18T16:05:34.668Z,-2.30
2022-12-18T16:08:04.059Z,-2.30
2022-12-18T16:10:30.877Z,-2.30
2022-12-18T16:13:02.498Z,-2.20
2022-12-18T16:15:29.352Z,-2.20
2022-12-18T16:17:56.232Z,-2.20
2022-12-18T16:20:25.479Z,-2.20
2022-12-18T16:22:52.320Z,-2.10
2022-12-18T16:25:30.253Z,-2.00
2022-12-18T16:27:57.370Z,-2.00
2022-12-18T16:30:28.252Z,-2.00
2022-12-18T16:32:56.283Z,-1.90
2022-12-18T16:35:25.311Z,-1.90
2022-12-18T16:37:52.058Z,-1.90
2022-12-18T16:40:19.163Z,-1.90
2022-12-18T16:42:48.529Z,-1.80
2022-12-18T16:45:16.988Z,-1.80
2022-12-18T16:47:43.857Z,-2.10
2022-12-18T16:50:10.739Z,-2.10
2022-12-18T16:52:37.556Z,-2.10
2022-12-18T16:55:05.964Z,-2.10
2022-12-18T16:57:32.770Z,-2.00
2022-12-18T17:00:04.711Z,-2.00
2022-12-18T17:02:32.951Z,-2.00
2022-12-18T17:05:00.441Z,-2.00
2022-12-18T17:07:28.671Z,-2.10
2022-12-18T17:09:58.129Z,-2.20
2022-12-18T17:12:27.401Z,-2.30
2022-12-18T17:14:54.190Z,-2.30
2022-12-18T17:17:22.683Z,-2.60
2022-12-18T17:19:53.169Z,-2.70
2022-12-18T17:22:24.874Z,-2.80
2022-12-18T17:24:53.952Z,-2.70
2022-12-18T17:27:20.815Z,-2.60
2022-12-18T17:29:49.952Z,-2.60
2022-12-18T17:32:17.564Z,-2.40
2022-12-18T17:34:46.922Z,-2.40
2022-12-18T17:37:14.378Z,-2.40
2022-12-18T17:39:46.009Z,-2.30
2022-12-18T17:42:15.323Z,-2.20
2022-12-18T17:44:43.142Z,-2.20
2022-12-18T17:47:13.129Z,-2.20
2022-12-18T17:49:40.155Z,-2.20
2022-12-18T17:52:06.936Z,-2.20
2022-12-18T17:54:33.743Z,-2.20
2022-12-18T17:57:00.667Z,-2.30
2022-12-18T17:59:27.563Z,-2.50
2022-12-18T18:01:54.477Z,-2.60
2022-12-18T18:04:23.903Z,-2.80
2022-12-18T18:06:53.648Z,-2.80
2022-12-18T18:09:20.508Z,-2.70
2022-12-18T18:12:06.789Z,-2.60
2022-12-18T18:14:33.788Z,-2.60
2022-12-18T18:17:04.900Z,-2.70
2022-12-18T18:19:34.711Z,-2.70
2022-12-18T18:22:02.924Z,-2.80
2022-12-18T18:24:30.079Z,-2.80
2022-12-18T18:26:58.895Z,-2.70
2022-12-18T18:29:26.916Z,-2.90
2022-12-18T18:31:54.565Z,-3.00
2022-12-18T18:34:23.013Z,-3.00
2022-12-18T18:36:49.787Z,-3.00
2022-12-18T18:39:18.785Z,-3.10
2022-12-18T18:41:48.003Z,-3.00
2022-12-18T18:44:15.662Z,-2.90
2022-12-18T18:46:44.745Z,-2.80
2022-12-18T18:49:11.864Z,-2.90
2022-12-18T18:51:41.084Z,-3.10
2022-12-18T18:54:10.429Z,-3.10
2022-12-18T18:57:04.081Z,-3.00
2022-12-18T18:59:29.186Z,-3.10
2022-12-18T19:02:04.455Z,-3.10
2022-12-18T19:04:34.994Z,-3.00
2022-12-18T19:07:01.809Z,-3.00
2022-12-18T19:09:28.739Z,-3.00
2022-12-18T19:12:14.312Z,-2.90
2022-12-18T19:14:43.370Z,-2.80
2022-12-18T19:17:10.190Z,-2.80
2022-12-18T19:19:37.263Z,-2.80
2022-12-18T19:22:04.221Z,-2.80
2022-12-18T19:24:30.949Z,-2.80
2022-12-18T19:26:58.230Z,-2.90
2022-12-18T19:29:25.133Z,-2.80
2022-12-18T19:31:54.393Z,-2.80
2022-12-18T19:34:24.058Z,-2.80
2022-12-18T19:36:59.304Z,-3.10
2022-12-18T19:39:26.422Z,-3.30
2022-12-18T19:41:55.311Z,-3.20
2022-12-18T19:44:22.041Z,-3.20
2022-12-18T19:46:53.078Z,-3.10
2022-12-18T19:49:19.826Z,-3.00
2022-12-18T19:51:46.676Z,-3.00
2022-12-18T19:54:17.138Z,-3.00
2022-12-18T19:56:44.446Z,-3.00
2022-12-18T19:59:13.558Z,-2.90
2022-12-18T20:01:43.875Z,-2.90
2022-12-18T20:04:11.032Z,-2.90
2022-12-18T20:06:47.648Z,-2.90
2022-12-18T20:09:14.499Z,-2.80
2022-12-18T20:11:42.204Z,-2.80
2022-12-18T20:14:10.669Z,-2.90
2022-12-18T20:16:39.717Z,-2.80
2022-12-18T20:19:07.059Z,-2.80
2022-12-18T20:21:33.906Z,-2.80
2022-12-18T20:24:02.946Z,-2.80
2022-12-18T20:26:34.362Z,-2.80
2022-12-18T20:29:01.164Z,-2.80
2022-12-18T20:31:27.909Z,-2.80
2022-12-18T20:34:00.366Z,-2.80
2022-12-18T20:36:30.691Z,-2.90
2022-12-18T20:39:05.049Z,-2.80
2022-12-18T20:41:38.001Z,-2.90
2022-12-18T20:44:17.749Z,-3.00
2022-12-18T20:46:50.049Z,-2.90
2022-12-18T20:49:16.782Z,-3.00
2022-12-18T20:51:43.511Z,-3.00
2022-12-18T20:54:12.860Z,-3.00
2022-12-18T20:56:39.606Z,-3.00
2022-12-18T20:59:06.350Z,-3.00
2022-12-18T21:01:33.186Z,-3.00
2022-12-18T21:04:01.732Z,-3.00
2022-12-18T21:06:28.480Z,-3.20
2022-12-18T21:08:55.593Z,-3.30
2022-12-18T21:11:41.416Z,-3.40
2022-12-18T21:14:19.190Z,-3.40
2022-12-18T21:16:49.744Z,-3.40
2022-12-18T21:19:18.041Z,-3.50
2022-12-18T21:21:45.094Z,-3.60
2022-12-18T21:24:12.144Z,-3.50
2022-12-18T21:26:46.043Z,-3.40
2022-12-18T21:29:18.162Z,-3.50
2022-12-18T21:31:47.254Z,-3.40
2022-12-18T21:34:18.912Z,-3.40
2022-12-18T21:36:48.314Z,-3.30
2022-12-18T21:39:15.437Z,-3.30
2022-12-18T21:42:00.492Z,-3.40
2022-12-18T21:44:27.503Z,-3.40
2022-12-18T21:46:59.802Z,-3.50
2022-12-18T21:49:31.720Z,-3.40
2022-12-18T21:51:58.961Z,-3.30
2022-12-18T21:54:26.186Z,-3.30
2022-12-18T21:56:59.270Z,-3.30
2022-12-18T21:59:35.750Z,-3.20
2022-12-18T22:02:17.433Z,-3.20
2022-12-18T22:04:49.510Z,-3.20
2022-12-18T22:07:19.181Z,-3.10
2022-12-18T22:09:45.971Z,-3.20
2022-12-18T22:12:13.394Z,-3.20
2022-12-18T22:14:42.288Z,-3.20
2022-12-18T22:17:11.135Z,-3.20
2022-12-18T22:19:43.114Z,-3.20
2022-12-18T22:22:10.372Z,-3.20
2022-12-18T22:24:37.104Z,-3.20
2022-12-18T22:27:03.934Z,-3.20
2022-12-18T22:29:49.560Z,-3.20
2022-12-18T22:32:30.943Z,-3.20
2022-12-18T22:35:07.249Z,-3.30
2022-12-18T22:37:37.308Z,-3.20
2022-12-18T22:40:07.911Z,-3.10
2022-12-18T22:42:35.521Z,-3.10
2022-12-18T22:45:02.262Z,-3.10
2022-12-18T22:47:30.507Z,-3.10
2022-12-18T22:49:58.443Z,-3.10
2022-12-18T22:52:25.556Z,-3.10
2022-12-18T22:54:54.880Z,-3.20
2022-12-18T22:57:22.387Z,-3.20
2022-12-18T22:59:49.942Z,-3.30
2022-12-18T23:02:18.048Z,-3.20
2022-12-18T23:04:52.017Z,-3.20
2022-12-18T23:07:18.869Z,-3.20
2022-12-18T23:09:49.347Z,-3.20
2022-12-18T23:12:17.547Z,-3.20
2022-12-18T23:14:44.300Z,-3.10
2022-12-18T23:17:11.445Z,-3.20
2022-12-18T23:19:38.200Z,-3.20
2022-12-18T23:22:10.060Z,-3.20
2022-12-18T23:24:38.388Z,-3.20
2022-12-18T23:27:06.489Z,-3.20
2022-12-18T23:29:38.356Z,-3.20
2022-12-18T23:32:05.177Z,-3.20
2022-12-18T23:34:36.442Z,-3.20
2022-12-18T23:37:03.936Z,-3.10
2022-12-18T23:39:30.824Z,-3.10
2022-12-18T23:42:00.347Z,-3.10
2022-12-18T23:44:27.377Z,-3.00
2022-12-18T23:46:54.345Z,-3.10
2022-12-18T23:49:21.172Z,-3.10
2022-12-18T23:51:48.065Z,-3.20
2022-12-18T23:54:14.806Z,-3.20
2022-12-18T23:56:41.584Z,-3.30
2022-12-18T23:59:08.364Z,-3.20
